Time;durP1;ratioP1;P1;durP2;ratioP2;P2;SDS_P1;SDS_P2;PMS_P1;PMS_P2;Temp;Humidity;BMP_temperature;BMP_pressure;BME280_temperature;BME280_humidity;BME280_pressure;Samples;Min_cycle;Max_cycle;Signal;HPM_P1;HPM_P2
2021/03/16 00:02:06;;;;;;;5.53;2.30;;;;;;;;;;5051917;28;20185;-74
2021/03/16 00:04:32;;;;;;;4.10;2.22;;;;;;;;;;5051824;28;20270;-76
2021/03/16 00:06:58;;;;;;;6.03;2.00;;;;;;;;;;5048402;28;20174;-77
2021/03/16 00:09:24;;;;;;;8.48;2.35;;;;;;;;;;5059205;28;20234;-76
2021/03/16 00:11:50;;;;;;;9.25;2.30;;;;;;;;;;5067663;28;20180;-76
2021/03/16 00:14:16;;;;;;;7.43;2.10;;;;;;;;;;5053157;28;20201;-74
2021/03/16 00:16:42;;;;;;;3.63;2.03;;;;;;;;;;5051946;28;20941;-75
2021/03/16 00:19:08;;;;;;;4.63;2.45;;;;;;;;;;5052071;28;20278;-76
2021/03/16 00:21:34;;;;;;;5.03;2.30;;;;;;;;;;5052149;28;20184;-75
2021/03/16 00:24:00;;;;;;;5.55;2.13;;;;;;;;;;5051006;28;20624;-75
2021/03/16 00:26:26;;;;;;;6.30;2.55;;;;;;;;;;5051888;28;20184;-75
2021/03/16 00:28:52;;;;;;;7.30;2.75;;;;;;;;;;5051117;28;20191;-75
2021/03/16 00:31:18;;;;;;;3.65;2.03;;;;;;;;;;5051979;28;20632;-75
2021/03/16 00:33:44;;;;;;;6.53;2.00;;;;;;;;;;5050549;28;20201;-74
2021/03/16 00:36:10;;;;;;;3.53;2.20;;;;;;;;;;5050407;28;20744;-74
2021/03/16 00:38:36;;;;;;;6.82;2.53;;;;;;;;;;5050972;28;20205;-74
2021/03/16 00:41:02;;;;;;;5.47;2.50;;;;;;;;;;5051095;28;20181;-75
2021/03/16 00:43:28;;;;;;;4.95;2.47;;;;;;;;;;5051051;28;20284;-76
2021/03/16 00:45:54;;;;;;;3.55;1.98;;;;;;;;;;5051044;28;20231;-74
2021/03/16 00:48:20;;;;;;;4.60;2.10;;;;;;;;;;5051483;28;20209;-74
2021/03/16 00:50:46;;;;;;;4.60;2.55;;;;;;;;;;5050751;28;20223;-75
2021/03/16 00:53:15;;;;;;;5.82;2.58;;;;;;;;;;5050958;28;20259;-75
2021/03/16 00:55:41;;;;;;;5.32;2.35;;;;;;;;;;5040075;28;20199;-75
2021/03/16 00:58:07;;;;;;;5.97;2.22;;;;;;;;;;5053846;28;20196;-75
2021/03/16 01:00:34;;;;;;;5.30;2.58;;;;;;;;;;5054922;28;20211;-74
2021/03/16 01:03:00;;;;;;;6.55;2.45;;;;;;;;;;5054964;28;20176;-75
2021/03/16 01:05:26;;;;;;;4.22;2.13;;;;;;;;;;5054484;28;20205;-76
2021/03/16 01:07:52;;;;;;;5.57;2.40;;;;;;;;;;5070313;28;20640;-74
2021/03/16 01:10:19;;;;;;;5.18;1.85;;;;;;;;;;5067457;28;21044;-74
2021/03/16 01:12:45;;;;;;;5.93;2.42;;;;;;;;;;5073624;28;20515;-73
2021/03/16 01:15:11;;;;;;;4.07;1.98;;;;;;;;;;5061548;28;20204;-75
2021/03/16 01:17:37;;;;;;;3.85;2.53;;;;;;;;;;5054982;28;20196;-75
2021/03/16 01:20:07;;;;;;;5.05;2.40;;;;;;;;;;5054774;28;20181;-75
2021/03/16 01:22:33;;;;;;;5.65;2.90;;;;;;;;;;5054752;28;20230;-74
2021/03/16 01:24:59;;;;;;;5.25;2.00;;;;;;;;;;5053571;28;20598;-75
2021/03/16 01:27:25;;;;;;;3.00;2.00;;;;;;;;;;5054557;28;20181;-76
2021/03/16 01:29:51;;;;;;;5.28;2.17;;;;;;;;;;5054212;28;20527;-75
2021/03/16 01:32:17;;;;;;;4.15;2.00;;;;;;;;;;5054539;28;20209;-73
2021/03/16 01:34:43;;;;;;;3.25;2.13;;;;;;;;;;5053720;28;20601;-74
2021/03/16 01:37:09;;;;;;;4.10;2.00;;;;;;;;;;5054080;28;20180;-73
2021/03/16 01:39:35;;;;;;;4.75;2.30;;;;;;;;;;5054378;28;20646;-73
2021/03/16 01:42:01;;;;;;;4.95;1.88;;;;;;;;;;5043906;28;20214;-74
2021/03/16 01:44:27;;;;;;;5.88;2.00;;;;;;;;;;5062961;28;20221;-74
2021/03/16 01:46:53;;;;;;;6.15;2.50;;;;;;;;;;5046205;28;20664;-74
2021/03/16 01:49:19;;;;;;;4.25;2.10;;;;;;;;;;5057415;28;20208;-74
2021/03/16 01:51:45;;;;;;;9.68;2.35;;;;;;;;;;5052192;28;20180;-74
2021/03/16 01:54:12;;;;;;;5.90;2.15;;;;;;;;;;5064136;28;20598;-75
2021/03/16 01:56:38;;;;;;;5.30;1.90;;;;;;;;;;5054041;28;20597;-74
2021/03/16 01:59:05;;;;;;;5.63;1.95;;;;;;;;;;5053272;28;20205;-74
2021/03/16 02:01:31;;;;;;;3.80;1.80;;;;;;;;;;5052316;28;20178;-75
2021/03/16 02:03:57;;;;;;;4.50;2.08;;;;;;;;;;5072965;28;20196;-73
2021/03/16 02:06:41;;;;;;;6.07;2.10;;;;;;;;;;5067443;28;20204;-74
2021/03/16 02:09:14;;;;;;;6.65;2.55;;;;;;;;;;5052604;28;20626;-75
2021/03/16 02:11:42;;;;;;;4.95;2.53;;;;;;;;;;5053206;28;20611;-73
2021/03/16 02:14:11;;;;;;;3.42;2.08;;;;;;;;;;5058825;28;20204;-72
2021/03/16 02:16:40;;;;;;;6.43;2.10;;;;;;;;;;5053760;28;20174;-72
2021/03/16 02:19:09;;;;;;;7.78;2.78;;;;;;;;;;5053711;28;20201;-73
2021/03/16 02:21:36;;;;;;;5.63;2.03;;;;;;;;;;5053393;28;20169;-73
2021/03/16 02:24:08;;;;;;;3.63;2.40;;;;;;;;;;5052660;28;20208;-73
2021/03/16 02:26:53;;;;;;;13.05;2.55;;;;;;;;;;5053483;28;20176;-72
2021/03/16 02:29:24;;;;;;;5.35;2.60;;;;;;;;;;5051646;28;20255;-74
2021/03/16 02:31:55;;;;;;;6.00;2.30;;;;;;;;;;5054177;28;20184;-75
2021/03/16 02:34:21;;;;;;;6.75;2.97;;;;;;;;;;5070692;28;20215;-75
2021/03/16 02:36:48;;;;;;;6.13;2.70;;;;;;;;;;5073429;28;20176;-75
2021/03/16 02:39:16;;;;;;;4.90;3.15;;;;;;;;;;5044550;28;20205;-74
2021/03/16 02:41:44;;;;;;;4.63;3.10;;;;;;;;;;5058437;28;20184;-74
2021/03/16 02:44:11;;;;;;;7.78;2.88;;;;;;;;;;5046714;28;20661;-75
2021/03/16 02:46:40;;;;;;;6.40;3.25;;;;;;;;;;5056094;28;20170;-77
2021/03/16 02:49:06;;;;;;;6.93;3.17;;;;;;;;;;5047679;28;20234;-73
2021/03/16 02:51:36;;;;;;;5.95;3.50;;;;;;;;;;5052518;28;20242;-74
2021/03/16 02:54:02;;;;;;;5.78;3.50;;;;;;;;;;5047965;28;20249;-75
2021/03/16 02:56:29;;;;;;;6.10;3.45;;;;;;;;;;5072283;28;20176;-73
2021/03/16 02:58:56;;;;;;;8.50;3.90;;;;;;;;;;5042728;28;20237;-75
2021/03/16 03:01:23;;;;;;;7.25;3.85;;;;;;;;;;5052908;28;20173;-74
2021/03/16 03:03:49;;;;;;;10.45;4.55;;;;;;;;;;5051783;28;20226;-75
2021/03/16 03:06:19;;;;;;;17.20;5.05;;;;;;;;;;5052562;28;20260;-74
2021/03/16 03:08:46;;;;;;;9.57;5.18;;;;;;;;;;5052477;28;20177;-74
2021/03/16 03:11:12;;;;;;;6.45;4.05;;;;;;;;;;5052280;28;20184;-75
2021/03/16 03:13:39;;;;;;;7.03;4.30;;;;;;;;;;5054235;28;20239;-75
2021/03/16 03:16:05;;;;;;;7.13;4.50;;;;;;;;;;5053806;28;20568;-75
2021/03/16 03:18:31;;;;;;;8.70;5.00;;;;;;;;;;5053571;28;20207;-75
2021/03/16 03:20:59;;;;;;;11.75;5.03;;;;;;;;;;5056660;28;20653;-75
2021/03/16 03:23:29;;;;;;;13.73;5.90;;;;;;;;;;5056379;28;20681;-76
2021/03/16 03:25:56;;;;;;;13.25;5.32;;;;;;;;;;5056082;28;20173;-74
2021/03/16 03:28:27;;;;;;;18.40;5.45;;;;;;;;;;5056483;28;20582;-75
2021/03/16 03:30:53;;;;;;;17.75;6.25;;;;;;;;;;5054250;28;20538;-75
2021/03/16 03:33:21;;;;;;;11.70;5.68;;;;;;;;;;5055803;28;20193;-75
2021/03/16 03:35:47;;;;;;;10.73;4.57;;;;;;;;;;5056920;28;20169;-74
2021/03/16 03:38:14;;;;;;;9.95;5.15;;;;;;;;;;5055967;28;20209;-73
2021/03/16 03:40:40;;;;;;;11.10;5.35;;;;;;;;;;5054254;28;20645;-73
2021/03/16 03:43:08;;;;;;;10.93;5.05;;;;;;;;;;5056121;28;20181;-72
2021/03/16 03:45:34;;;;;;;18.65;5.72;;;;;;;;;;5056419;28;20201;-73
2021/03/16 03:48:02;;;;;;;12.30;5.97;;;;;;;;;;5056582;28;20181;-74
2021/03/16 03:50:28;;;;;;;13.05;6.68;;;;;;;;;;5056889;28;20218;-74
2021/03/16 03:52:55;;;;;;;11.90;6.10;;;;;;;;;;5055841;28;20192;-73
2021/03/16 03:55:22;;;;;;;12.95;6.10;;;;;;;;;;5056068;28;20269;-73
2021/03/16 03:57:51;;;;;;;11.93;5.90;;;;;;;;;;5055417;28;20258;-74
2021/03/16 04:00:17;;;;;;;14.75;5.82;;;;;;;;;;5055821;28;20177;-74
2021/03/16 04:02:44;;;;;;;20.40;6.90;;;;;;;;;;5055290;28;20173;-74
2021/03/16 04:05:12;;;;;;;19.10;6.18;;;;;;;;;;5055506;28;20217;-75
2021/03/16 04:07:38;;;;;;;18.17;6.00;;;;;;;;;;5055263;28;20177;-74
2021/03/16 04:10:08;;;;;;;20.48;5.90;;;;;;;;;;5052554;28;20185;-73
2021/03/16 04:12:35;;;;;;;17.95;6.25;;;;;;;;;;5061557;28;20229;-75
2021/03/16 04:15:02;;;;;;;13.43;6.25;;;;;;;;;;5058305;28;20204;-74
2021/03/16 04:17:28;;;;;;;16.30;6.25;;;;;;;;;;5055872;28;20244;-73
2021/03/16 04:19:55;;;;;;;21.98;7.70;;;;;;;;;;5051794;28;20172;-74
2021/03/16 04:22:21;;;;;;;17.52;6.63;;;;;;;;;;5055331;28;20177;-73
2021/03/16 04:24:47;;;;;;;13.07;6.55;;;;;;;;;;5051387;28;20200;-73
2021/03/16 04:27:13;;;;;;;16.60;6.25;;;;;;;;;;5075028;28;20179;-72
2021/03/16 04:29:39;;;;;;;15.75;6.65;;;;;;;;;;5052852;28;20173;-72
2021/03/16 04:32:05;;;;;;;23.83;6.80;;;;;;;;;;5050620;28;20635;-73
2021/03/16 04:34:31;;;;;;;21.13;6.57;;;;;;;;;;5075253;28;20607;-72
2021/03/16 04:36:57;;;;;;;25.95;8.57;;;;;;;;;;5063654;28;20195;-73
2021/03/16 04:39:23;;;;;;;32.38;8.55;;;;;;;;;;5066765;28;20206;-74
2021/03/16 04:41:49;;;;;;;28.40;8.70;;;;;;;;;;5062580;28;20176;-71
2021/03/16 04:44:15;;;;;;;27.50;8.77;;;;;;;;;;5072134;28;20196;-72
2021/03/16 04:46:41;;;;;;;33.92;9.60;;;;;;;;;;5075423;28;20183;-74
2021/03/16 04:49:07;;;;;;;22.63;8.23;;;;;;;;;;5058744;28;20231;-73
2021/03/16 04:51:33;;;;;;;29.88;11.45;;;;;;;;;;5071137;28;20185;-74
2021/03/16 04:53:59;;;;;;;28.80;10.48;;;;;;;;;;5067827;28;20197;-74
2021/03/16 04:56:25;;;;;;;25.17;9.90;;;;;;;;;;5053378;28;20539;-74
2021/03/16 04:58:51;;;;;;;24.10;9.90;;;;;;;;;;5074328;28;20200;-74
2021/03/16 05:01:17;;;;;;;22.08;9.52;;;;;;;;;;5067233;28;20176;-74
2021/03/16 05:03:43;;;;;;;37.30;10.23;;;;;;;;;;5074298;28;20214;-74
2021/03/16 05:06:10;;;;;;;23.02;9.80;;;;;;;;;;5069720;28;20184;-74
2021/03/16 05:08:36;;;;;;;24.05;10.07;;;;;;;;;;5054815;28;20181;-74
2021/03/16 05:11:02;;;;;;;31.55;11.38;;;;;;;;;;5046343;28;20538;-74
2021/03/16 05:13:28;;;;;;;30.38;11.25;;;;;;;;;;5056650;28;20201;-74
2021/03/16 05:15:54;;;;;;;21.10;10.00;;;;;;;;;;5056733;28;20185;-73
2021/03/16 05:18:20;;;;;;;27.88;11.00;;;;;;;;;;5054540;28;20208;-74
2021/03/16 05:20:46;;;;;;;31.85;10.52;;;;;;;;;;5054126;28;20181;-74
2021/03/16 05:23:12;;;;;;;21.80;10.25;;;;;;;;;;5052978;28;20173;-72
2021/03/16 05:25:38;;;;;;;23.38;10.50;;;;;;;;;;5053876;28;20511;-74
2021/03/16 05:28:04;;;;;;;21.65;10.40;;;;;;;;;;5054545;28;20184;-73
2021/03/16 05:30:30;;;;;;;31.50;10.57;;;;;;;;;;5053753;28;20185;-72
2021/03/16 05:32:59;;;;;;;25.50;11.40;;;;;;;;;;5053866;28;20190;-73
2021/03/16 05:35:26;;;;;;;29.02;10.93;;;;;;;;;;5063097;28;20197;-73
2021/03/16 05:37:52;;;;;;;25.65;11.63;;;;;;;;;;5063283;28;20687;-75
2021/03/16 05:40:19;;;;;;;22.52;10.27;;;;;;;;;;5066477;28;20567;-74
2021/03/16 05:42:45;;;;;;;31.33;11.55;;;;;;;;;;5063335;28;20622;-75
2021/03/16 05:45:12;;;;;;;25.13;10.55;;;;;;;;;;5069235;28;20196;-75
2021/03/16 05:47:39;;;;;;;28.50;10.40;;;;;;;;;;5064892;28;20204;-75
2021/03/16 05:50:05;;;;;;;25.95;10.50;;;;;;;;;;5056791;28;20187;-74
2021/03/16 05:52:31;;;;;;;24.33;9.82;;;;;;;;;;5053891;28;20202;-72
2021/03/16 05:54:57;;;;;;;28.52;10.00;;;;;;;;;;5052791;28;20196;-74
2021/03/16 05:57:26;;;;;;;27.20;9.25;;;;;;;;;;5051657;28;20184;-74
2021/03/16 05:59:52;;;;;;;22.52;9.50;;;;;;;;;;5071873;28;20184;-74
2021/03/16 06:02:18;;;;;;;23.02;9.27;;;;;;;;;;5073659;28;20176;-72
2021/03/16 06:04:44;;;;;;;14.77;7.32;;;;;;;;;;5053982;28;20219;-72
2021/03/16 06:07:14;;;;;;;20.13;9.25;;;;;;;;;;5053717;28;20527;-74
2021/03/16 06:09:40;;;;;;;23.08;7.57;;;;;;;;;;5049170;28;20563;-73
2021/03/16 06:12:06;;;;;;;19.27;7.97;;;;;;;;;;5049144;28;20192;-73
2021/03/16 06:14:33;;;;;;;17.77;7.97;;;;;;;;;;5053138;28;20197;-73
2021/03/16 06:16:59;;;;;;;19.55;7.28;;;;;;;;;;5053638;28;20177;-73
2021/03/16 06:19:27;;;;;;;14.48;6.20;;;;;;;;;;5049162;28;20204;-72
2021/03/16 06:22:05;;;;;;;15.70;7.03;;;;;;;;;;5053021;28;20173;-73
2021/03/16 06:24:32;;;;;;;15.00;6.25;;;;;;;;;;5052369;28;20546;-75
2021/03/16 06:26:58;;;;;;;20.98;6.47;;;;;;;;;;5053391;28;20173;-73
2021/03/16 06:29:24;;;;;;;16.25;6.07;;;;;;;;;;5052673;28;20173;-74
2021/03/16 06:31:51;;;;;;;16.20;6.63;;;;;;;;;;5061927;28;20254;-73
2021/03/16 06:34:24;;;;;;;18.35;5.93;;;;;;;;;;5054225;28;20616;-74
2021/03/16 06:36:57;;;;;;;11.75;5.68;;;;;;;;;;5057576;28;20587;-72
2021/03/16 06:39:23;;;;;;;20.88;6.22;;;;;;;;;;5062489;28;20279;-73
2021/03/16 06:41:50;;;;;;;22.95;14.70;;;;;;;;;;5050649;28;20196;-74
2021/03/16 06:44:17;;;;;;;15.38;5.25;;;;;;;;;;5052554;28;20250;-72
2021/03/16 06:46:43;;;;;;;11.80;4.72;;;;;;;;;;5052982;28;20173;-75
2021/03/16 06:49:16;;;;;;;13.63;5.00;;;;;;;;;;5051861;28;20181;-72
2021/03/16 06:51:42;;;;;;;12.52;4.18;;;;;;;;;;5047878;28;20168;-73
2021/03/16 06:54:12;;;;;;;12.05;4.95;;;;;;;;;;5045850;28;20591;-74
2021/03/16 06:56:39;;;;;;;10.98;4.63;;;;;;;;;;5049918;28;20185;-74
2021/03/16 06:59:05;;;;;;;10.38;4.25;;;;;;;;;;5058988;28;20728;-74
2021/03/16 07:01:32;;;;;;;13.05;4.53;;;;;;;;;;5052901;28;20188;-74
2021/03/16 07:03:59;;;;;;;9.13;4.45;;;;;;;;;;5072418;28;20196;-74
2021/03/16 07:06:25;;;;;;;11.18;4.72;;;;;;;;;;5056229;28;20232;-75
2021/03/16 07:08:51;;;;;;;16.70;5.32;;;;;;;;;;5072917;28;20644;-74
2021/03/16 07:11:23;;;;;;;11.13;4.47;;;;;;;;;;5047285;28;20188;-73
2021/03/16 07:13:49;;;;;;;8.93;4.32;;;;;;;;;;5052331;28;20565;-73
2021/03/16 07:16:16;;;;;;;14.15;4.65;;;;;;;;;;5052829;28;20177;-74
2021/03/16 07:18:43;;;;;;;13.18;4.00;;;;;;;;;;5052754;28;20209;-72
2021/03/16 07:21:09;;;;;;;11.00;4.35;;;;;;;;;;5051978;28;20177;-74
2021/03/16 07:23:40;;;;;;;9.85;4.20;;;;;;;;;;5051299;28;20739;-73
2021/03/16 07:26:06;;;;;;;9.65;4.28;;;;;;;;;;5052938;28;20252;-73
2021/03/16 07:28:33;;;;;;;10.48;3.90;;;;;;;;;;5052042;28;20646;-72
2021/03/16 07:30:59;;;;;;;9.95;3.65;;;;;;;;;;5051406;28;20267;-73
2021/03/16 07:33:27;;;;;;;7.18;3.85;;;;;;;;;;5061954;28;20192;-72
2021/03/16 07:35:53;;;;;;;13.07;3.70;;;;;;;;;;5065565;28;20181;-74
2021/03/16 07:38:19;;;;;;;8.05;2.80;;;;;;;;;;5052728;28;20523;-75
2021/03/16 07:40:45;;;;;;;12.40;3.65;;;;;;;;;;5052152;28;20184;-73
2021/03/16 07:43:11;;;;;;;14.18;3.17;;;;;;;;;;5062077;28;20188;-73
2021/03/16 07:45:38;;;;;;;12.88;3.17;;;;;;;;;;5072282;28;20184;-74
2021/03/16 07:48:14;;;;;;;17.92;4.13;;;;;;;;;;5061823;28;20178;-74
2021/03/16 07:50:40;;;;;;;12.55;3.33;;;;;;;;;;5040068;28;20242;-74
2021/03/16 07:53:06;;;;;;;14.48;3.35;;;;;;;;;;5048357;28;20185;-74
2021/03/16 07:55:33;;;;;;;14.07;3.65;;;;;;;;;;5046930;28;20550;-75
2021/03/16 07:58:10;;;;;;;15.20;3.50;;;;;;;;;;5041227;28;20266;-74
2021/03/16 08:00:36;;;;;;;12.25;3.97;;;;;;;;;;5048162;28;20212;-74
2021/03/16 08:03:03;;;;;;;15.13;3.40;;;;;;;;;;5049405;28;20174;-74
2021/03/16 08:05:51;;;;;;;9.65;3.10;;;;;;;;;;5071948;28;20212;-74
2021/03/16 08:08:18;;;;;;;13.85;3.28;;;;;;;;;;5067825;28;20234;-75
2021/03/16 08:10:44;;;;;;;11.30;4.00;;;;;;;;;;5071958;28;20184;-75
2021/03/16 08:13:17;;;;;;;6.50;2.97;;;;;;;;;;5071483;28;20195;-73
2021/03/16 08:15:45;;;;;;;9.75;3.35;;;;;;;;;;5064466;28;20275;-73
2021/03/16 08:18:12;;;;;;;19.33;4.15;;;;;;;;;;5071792;28;20196;-75
2021/03/16 08:20:38;;;;;;;10.93;3.50;;;;;;;;;;5072064;28;20536;-73
2021/03/16 08:23:09;;;;;;;10.23;3.70;;;;;;;;;;5056081;28;20533;-73
2021/03/16 08:25:36;;;;;;;13.20;3.33;;;;;;;;;;5058314;28;20196;-74
2021/03/16 08:28:06;;;;;;;9.38;3.40;;;;;;;;;;5044238;28;20825;-74
2021/03/16 08:30:33;;;;;;;14.93;3.60;;;;;;;;;;5050708;28;20180;-72
2021/03/16 08:32:59;;;;;;;10.63;3.05;;;;;;;;;;5050774;28;20190;-75
2021/03/16 08:35:27;;;;;;;12.85;4.28;;;;;;;;;;5056733;28;20259;-75
2021/03/16 08:37:53;;;;;;;11.25;3.83;;;;;;;;;;5051068;28;20209;-74
2021/03/16 08:40:23;;;;;;;9.25;3.50;;;;;;;;;;5051310;28;20180;-74
2021/03/16 08:42:50;;;;;;;9.63;3.72;;;;;;;;;;5055084;28;20172;-75
2021/03/16 08:45:27;;;;;;;12.45;3.83;;;;;;;;;;5046399;28;20296;-75
2021/03/16 08:47:53;;;;;;;10.15;3.63;;;;;;;;;;5051166;28;20685;-74
2021/03/16 08:50:22;;;;;;;11.93;3.60;;;;;;;;;;5042266;28;20180;-75
2021/03/16 08:52:47;;;;;;;12.20;3.40;;;;;;;;;;5049690;28;20645;-74
2021/03/16 08:55:21;;;;;;;9.93;3.55;;;;;;;;;;5053389;28;20244;-74
2021/03/16 08:57:47;;;;;;;13.15;4.20;;;;;;;;;;5037956;28;20209;-74
2021/03/16 09:00:14;;;;;;;19.37;3.90;;;;;;;;;;5054606;28;20661;-73
2021/03/16 09:02:41;;;;;;;11.13;3.45;;;;;;;;;;5051157;28;20427;-74
2021/03/16 09:05:17;;;;;;;13.75;4.00;;;;;;;;;;5049903;28;20213;-74
2021/03/16 09:07:43;;;;;;;9.32;3.08;;;;;;;;;;5042691;28;20181;-73
2021/03/16 09:10:10;;;;;;;11.10;3.60;;;;;;;;;;5070768;28;20184;-73
2021/03/16 09:12:41;;;;;;;10.63;3.58;;;;;;;;;;5050102;28;20192;-74
2021/03/16 09:15:11;;;;;;;12.15;3.85;;;;;;;;;;5051802;28;20283;-74
2021/03/16 09:17:39;;;;;;;11.77;3.90;;;;;;;;;;5050477;28;20177;-74
2021/03/16 09:20:12;;;;;;;11.18;4.90;;;;;;;;;;5048487;28;20180;-75
2021/03/16 09:22:38;;;;;;;9.15;3.45;;;;;;;;;;5054537;28;20181;-74
2021/03/16 09:25:06;;;;;;;18.10;4.47;;;;;;;;;;5046640;28;20233;-74
2021/03/16 09:27:33;;;;;;;8.60;3.70;;;;;;;;;;5047142;28;20641;-74
2021/03/16 09:29:59;;;;;;;16.80;4.28;;;;;;;;;;5043420;28;20231;-74
2021/03/16 09:32:25;;;;;;;12.05;3.47;;;;;;;;;;5050054;28;20209;-75
2021/03/16 09:34:51;;;;;;;10.15;3.35;;;;;;;;;;5050071;28;20638;-75
2021/03/16 09:37:21;;;;;;;10.23;4.00;;;;;;;;;;5049990;28;20189;-74
2021/03/16 09:39:56;;;;;;;14.35;4.47;;;;;;;;;;5050600;28;20212;-74
2021/03/16 09:42:31;;;;;;;12.20;3.58;;;;;;;;;;5049971;28;20212;-75
2021/03/16 09:44:58;;;;;;;19.52;4.38;;;;;;;;;;5049881;28;20691;-74
2021/03/16 09:47:26;;;;;;;14.45;4.65;;;;;;;;;;5049882;28;20665;-74
2021/03/16 09:50:02;;;;;;;17.75;4.80;;;;;;;;;;5050473;28;20205;-74
2021/03/16 09:52:28;;;;;;;10.57;3.60;;;;;;;;;;5049724;28;20188;-75
2021/03/16 09:54:54;;;;;;;9.90;4.13;;;;;;;;;;5049799;28;20205;-75
2021/03/16 09:57:20;;;;;;;12.35;4.00;;;;;;;;;;5049540;28;20207;-74
2021/03/16 09:59:46;;;;;;;16.00;3.85;;;;;;;;;;5049660;28;20208;-75
2021/03/16 10:02:13;;;;;;;11.45;4.20;;;;;;;;;;5050058;28;20169;-74
2021/03/16 10:04:49;;;;;;;14.13;4.38;;;;;;;;;;5048829;28;20338;-74
2021/03/16 10:07:28;;;;;;;11.15;3.42;;;;;;;;;;5049977;28;20673;-74
2021/03/16 10:09:54;;;;;;;9.00;3.13;;;;;;;;;;5049217;28;20554;-74
2021/03/16 10:12:21;;;;;;;13.13;3.67;;;;;;;;;;5049744;28;20299;-73
2021/03/16 10:14:51;;;;;;;9.32;3.47;;;;;;;;;;5048455;28;20327;-74
2021/03/16 10:17:27;;;;;;;17.08;5.10;;;;;;;;;;5049540;28;20601;-76
2021/03/16 10:19:54;;;;;;;8.80;4.57;;;;;;;;;;5041637;28;20682;-74
2021/03/16 10:22:20;;;;;;;13.05;5.20;;;;;;;;;;5049232;28;20173;-75
2021/03/16 10:24:53;;;;;;;11.52;4.28;;;;;;;;;;5048159;28;20239;-74
2021/03/16 10:27:30;;;;;;;12.63;3.80;;;;;;;;;;5048328;28;20181;-73
2021/03/16 10:29:56;;;;;;;7.70;4.00;;;;;;;;;;5047279;28;20185;-74
2021/03/16 10:32:22;;;;;;;9.15;4.40;;;;;;;;;;5049413;28;20181;-74
2021/03/16 10:34:48;;;;;;;20.83;7.13;;;;;;;;;;5048360;28;20282;-74
2021/03/16 10:37:21;;;;;;;10.25;4.15;;;;;;;;;;5049271;28;20285;-74
2021/03/16 10:39:47;;;;;;;11.57;4.00;;;;;;;;;;5040838;28;20213;-74
2021/03/16 10:42:13;;;;;;;7.55;4.20;;;;;;;;;;5062759;28;20183;-74
2021/03/16 10:44:39;;;;;;;12.52;4.50;;;;;;;;;;5043517;28;20198;-75
2021/03/16 10:47:06;;;;;;;12.48;4.22;;;;;;;;;;5062862;28;20191;-73
2021/03/16 10:49:32;;;;;;;13.70;4.07;;;;;;;;;;5065911;28;20191;-72
2021/03/16 10:51:59;;;;;;;6.78;3.50;;;;;;;;;;5061044;28;20184;-73
2021/03/16 10:54:25;;;;;;;15.15;4.65;;;;;;;;;;5048803;28;20293;-74
2021/03/16 10:56:53;;;;;;;8.80;3.28;;;;;;;;;;5055087;28;20281;-74
2021/03/16 10:59:20;;;;;;;11.98;3.60;;;;;;;;;;5048785;28;20208;-74
2021/03/16 11:01:46;;;;;;;8.25;3.20;;;;;;;;;;5049020;28;20173;-74
2021/03/16 11:04:12;;;;;;;12.52;4.00;;;;;;;;;;5048009;28;20543;-74
2021/03/16 11:06:38;;;;;;;14.80;4.13;;;;;;;;;;5049048;28;20176;-74
2021/03/16 11:09:04;;;;;;;12.95;4.30;;;;;;;;;;5048785;28;20713;-74
2021/03/16 11:11:30;;;;;;;7.43;3.80;;;;;;;;;;5049262;28;20271;-73
2021/03/16 11:13:56;;;;;;;5.13;2.63;;;;;;;;;;5048135;28;20275;-74
2021/03/16 11:16:22;;;;;;;12.65;3.50;;;;;;;;;;5048973;28;20416;-74
2021/03/16 11:18:48;;;;;;;7.87;3.00;;;;;;;;;;5048553;28;20262;-75
2021/03/16 11:21:14;;;;;;;7.13;3.03;;;;;;;;;;5049121;28;20423;-74
2021/03/16 11:23:40;;;;;;;14.00;3.60;;;;;;;;;;5048199;28;20444;-74
2021/03/16 11:26:06;;;;;;;9.43;3.28;;;;;;;;;;5048138;28;20205;-74
2021/03/16 11:28:32;;;;;;;8.87;3.13;;;;;;;;;;5048615;28;20212;-75
2021/03/16 11:30:59;;;;;;;7.28;3.05;;;;;;;;;;5053166;28;20436;-75
2021/03/16 11:33:25;;;;;;;7.97;3.28;;;;;;;;;;5067275;28;20215;-75
2021/03/16 11:35:51;;;;;;;9.00;3.13;;;;;;;;;;5064296;28;20232;-74
2021/03/16 11:38:17;;;;;;;8.55;4.35;;;;;;;;;;5051977;28;20249;-73
2021/03/16 11:40:43;;;;;;;9.30;3.63;;;;;;;;;;5053122;28;20192;-74
2021/03/16 11:43:09;;;;;;;10.32;3.70;;;;;;;;;;5072115;28;20633;-76
2021/03/16 11:45:35;;;;;;;9.45;3.20;;;;;;;;;;5049126;28;20241;-75
2021/03/16 11:48:01;;;;;;;9.52;3.90;;;;;;;;;;5052545;28;20192;-74
2021/03/16 11:50:27;;;;;;;10.13;4.20;;;;;;;;;;5052588;28;20254;-75
2021/03/16 11:52:53;;;;;;;10.82;3.67;;;;;;;;;;5052026;28;20204;-75
2021/03/16 11:55:19;;;;;;;9.15;4.25;;;;;;;;;;5049535;28;20201;-75
2021/03/16 11:57:45;;;;;;;9.65;3.40;;;;;;;;;;5045764;28;20250;-74
2021/03/16 12:00:12;;;;;;;9.75;3.45;;;;;;;;;;5052025;28;20177;-73
2021/03/16 12:02:38;;;;;;;7.25;3.90;;;;;;;;;;5059859;28;20219;-72
2021/03/16 12:05:04;;;;;;;11.60;3.65;;;;;;;;;;5051145;28;20205;-73
2021/03/16 12:07:31;;;;;;;8.10;3.25;;;;;;;;;;5052344;28;20196;-71
2021/03/16 12:09:57;;;;;;;8.98;3.47;;;;;;;;;;5052092;28;20189;-72
2021/03/16 12:12:23;;;;;;;9.68;2.90;;;;;;;;;;5050323;28;20213;-72
2021/03/16 12:14:49;;;;;;;6.05;2.70;;;;;;;;;;5055798;28;20246;-73
2021/03/16 12:17:15;;;;;;;9.65;2.75;;;;;;;;;;5072013;28;20176;-72
2021/03/16 12:19:41;;;;;;;5.63;2.90;;;;;;;;;;5072050;28;20211;-73
2021/03/16 12:22:07;;;;;;;6.22;2.40;;;;;;;;;;5059882;28;20173;-70
2021/03/16 12:24:34;;;;;;;4.22;2.28;;;;;;;;;;5069228;28;20204;-71
2021/03/16 12:27:00;;;;;;;7.80;2.40;;;;;;;;;;5071647;28;20187;-73
2021/03/16 12:29:26;;;;;;;6.05;2.60;;;;;;;;;;5048558;28;20176;-74
2021/03/16 12:31:52;;;;;;;9.02;2.45;;;;;;;;;;5038795;28;20574;-74
2021/03/16 12:34:18;;;;;;;6.65;2.65;;;;;;;;;;5062393;28;20211;-75
2021/03/16 12:36:44;;;;;;;8.27;2.72;;;;;;;;;;5059482;28;20264;-74
2021/03/16 12:39:10;;;;;;;8.23;3.03;;;;;;;;;;5066815;28;20963;-74
2021/03/16 12:41:36;;;;;;;11.85;4.15;;;;;;;;;;5071710;28;20209;-74
2021/03/16 12:44:02;;;;;;;6.63;2.50;;;;;;;;;;5069240;28;20287;-74
2021/03/16 12:46:28;;;;;;;8.57;2.83;;;;;;;;;;5051431;28;20577;-75
2021/03/16 12:48:55;;;;;;;7.32;2.03;;;;;;;;;;5042425;28;20881;-75
2021/03/16 12:51:21;;;;;;;6.40;2.10;;;;;;;;;;5071481;28;20196;-75
2021/03/16 12:53:47;;;;;;;7.82;2.35;;;;;;;;;;5070741;28;20262;-75
2021/03/16 12:56:13;;;;;;;4.30;2.00;;;;;;;;;;5071298;28;20183;-74
2021/03/16 12:58:40;;;;;;;5.22;2.10;;;;;;;;;;5058683;28;20208;-75
2021/03/16 13:01:06;;;;;;;7.40;1.98;;;;;;;;;;5051204;28;20650;-76
2021/03/16 13:03:32;;;;;;;7.28;2.08;;;;;;;;;;5050383;28;20225;-75
2021/03/16 13:05:58;;;;;;;6.95;1.83;;;;;;;;;;5046631;28;20232;-75
2021/03/16 13:08:24;;;;;;;7.60;2.35;;;;;;;;;;5050971;28;20199;-74
2021/03/16 13:10:50;;;;;;;4.35;2.20;;;;;;;;;;5051006;28;20200;-74
2021/03/16 13:13:16;;;;;;;3.60;1.95;;;;;;;;;;5050254;28;20646;-74
2021/03/16 13:15:42;;;;;;;4.05;1.83;;;;;;;;;;5059580;28;20206;-76
2021/03/16 13:18:10;;;;;;;9.27;2.10;;;;;;;;;;5051140;28;20209;-76
2021/03/16 13:20:36;;;;;;;4.65;1.90;;;;;;;;;;5050898;28;20602;-74
2021/03/16 13:23:02;;;;;;;13.98;2.45;;;;;;;;;;5048428;28;20296;-72
2021/03/16 13:25:29;;;;;;;5.70;2.30;;;;;;;;;;5044209;28;20222;-73
2021/03/16 13:27:55;;;;;;;4.35;2.05;;;;;;;;;;5045373;28;20188;-74
2021/03/16 13:30:21;;;;;;;6.65;2.25;;;;;;;;;;5046896;28;20177;-75
2021/03/16 13:32:47;;;;;;;12.25;2.60;;;;;;;;;;5052433;28;20185;-75
2021/03/16 13:35:14;;;;;;;9.13;2.45;;;;;;;;;;5061690;28;20655;-75
2021/03/16 13:37:40;;;;;;;8.90;2.50;;;;;;;;;;5057677;28;20185;-73
2021/03/16 13:40:06;;;;;;;8.48;2.35;;;;;;;;;;5050385;28;20173;-74
2021/03/16 13:42:32;;;;;;;7.40;2.42;;;;;;;;;;5049868;28;20180;-74
2021/03/16 13:44:58;;;;;;;9.68;3.13;;;;;;;;;;5037692;28;20229;-75
2021/03/16 13:47:24;;;;;;;13.93;3.40;;;;;;;;;;5069463;28;20233;-75
2021/03/16 13:49:50;;;;;;;4.55;2.10;;;;;;;;;;5055637;28;20193;-74
2021/03/16 13:52:16;;;;;;;6.65;2.30;;;;;;;;;;5069093;28;20208;-73
2021/03/16 13:54:42;;;;;;;6.40;2.38;;;;;;;;;;5053465;28;20519;-73
2021/03/16 13:57:08;;;;;;;9.38;2.40;;;;;;;;;;5050487;28;20181;-76
2021/03/16 13:59:34;;;;;;;9.75;2.60;;;;;;;;;;5048825;28;20243;-75
2021/03/16 14:02:00;;;;;;;4.65;2.30;;;;;;;;;;5049401;28;20566;-76
2021/03/16 14:04:26;;;;;;;9.23;2.30;;;;;;;;;;5047471;28;20288;-75
2021/03/16 14:06:52;;;;;;;7.32;2.40;;;;;;;;;;5052831;28;20184;-76
2021/03/16 14:09:20;;;;;;;6.72;2.20;;;;;;;;;;5069488;28;20183;-77
2021/03/16 14:11:46;;;;;;;7.15;2.65;;;;;;;;;;5064508;28;20188;-76
2021/03/16 14:14:13;;;;;;;6.70;2.40;;;;;;;;;;5058878;28;20224;-74
2021/03/16 14:16:39;;;;;;;8.00;2.60;;;;;;;;;;5049828;28;20185;-76
2021/03/16 14:19:05;;;;;;;5.93;2.30;;;;;;;;;;5049047;28;20270;-76
2021/03/16 14:21:31;;;;;;;6.13;2.23;;;;;;;;;;5053898;28;20207;-75
2021/03/16 14:23:57;;;;;;;9.60;3.33;;;;;;;;;;5069062;28;20442;-75
2021/03/16 14:26:23;;;;;;;13.63;2.63;;;;;;;;;;5048094;28;20185;-74
2021/03/16 14:28:49;;;;;;;4.60;2.25;;;;;;;;;;5042516;28;20179;-72
2021/03/16 14:31:17;;;;;;;13.38;2.20;;;;;;;;;;5047398;28;20905;-74
2021/03/16 14:33:43;;;;;;;9.50;3.60;;;;;;;;;;5054137;28;20208;-75
2021/03/16 14:36:09;;;;;;;3.67;1.80;;;;;;;;;;5053890;28;20219;-75